createdAt,value
2019-03-08T00:00:57.367Z,0.00
2019-03-08T00:01:57.336Z,0.00
2019-03-08T00:02:57.326Z,0.00
2019-03-08T00:03:57.315Z,0.00
2019-03-08T00:04:57.305Z,0.00
2019-03-08T00:05:57.306Z,0.00
2019-03-08T00:06:57.281Z,0.00
2019-03-08T00:07:57.269Z,0.00
2019-03-08T00:08:57.257Z,0.00
2019-03-08T00:09:57.249Z,0.00
2019-03-08T00:10:57.252Z,0.00
2019-03-08T00:11:57.224Z,0.00
2019-03-08T00:12:57.213Z,0.00
2019-03-08T00:13:57.202Z,0.00
2019-03-08T00:14:57.190Z,0.00
2019-03-08T00:15:57.196Z,0.00
2019-03-08T00:16:57.177Z,0.00
2019-03-08T00:17:57.157Z,0.00
2019-03-08T00:18:57.146Z,0.00
2019-03-08T00:19:57.136Z,0.00
2019-03-08T00:20:57.138Z,0.00
2019-03-08T00:21:57.111Z,0.00
2019-03-08T00:22:57.101Z,0.00
2019-03-08T00:23:57.089Z,0.00
2019-03-08T00:24:57.078Z,0.00
2019-03-08T00:25:57.079Z,0.00
2019-03-08T00:26:57.055Z,0.00
2019-03-08T00:27:57.043Z,0.00
2019-03-08T00:28:57.032Z,0.00
2019-03-08T00:29:57.021Z,0.00
2019-03-08T00:30:57.023Z,0.00
2019-03-08T00:31:56.998Z,0.00
2019-03-08T00:32:56.987Z,0.00
2019-03-08T00:33:56.975Z,0.00
2019-03-08T00:34:56.964Z,0.00
2019-03-08T00:35:56.966Z,0.00
2019-03-08T00:36:56.941Z,0.00
2019-03-08T00:37:56.932Z,0.00
2019-03-08T00:38:56.920Z,0.00
2019-03-08T00:39:56.907Z,0.00
2019-03-08T00:40:56.912Z,0.00
2019-03-08T00:41:56.886Z,0.00
2019-03-08T00:42:56.872Z,0.00
2019-03-08T00:43:56.865Z,0.00
2019-03-08T00:44:56.851Z,0.00
2019-03-08T00:45:56.855Z,0.00
2019-03-08T00:46:56.829Z,0.00
2019-03-08T00:47:56.818Z,0.00
2019-03-08T00:48:56.807Z,0.00
2019-03-08T00:49:56.794Z,0.00
2019-03-08T00:50:56.801Z,0.00
2019-03-08T00:51:56.774Z,0.00
2019-03-08T00:52:56.761Z,0.00
2019-03-08T00:53:56.752Z,0.00
2019-03-08T00:54:56.738Z,0.00
2019-03-08T00:55:56.743Z,0.00
2019-03-08T00:56:56.716Z,0.00
2019-03-08T00:57:56.705Z,0.00
2019-03-08T00:58:56.694Z,0.00
2019-03-08T00:59:56.681Z,0.00
2019-03-08T01:00:56.687Z,0.00
2019-03-08T01:01:56.660Z,0.00
2019-03-08T01:02:56.648Z,0.00
2019-03-08T01:03:56.636Z,0.00
2019-03-08T01:04:56.625Z,0.00
2019-03-08T01:05:56.630Z,0.00
2019-03-08T01:06:56.602Z,0.00
2019-03-08T01:07:56.591Z,0.00
2019-03-08T01:08:56.580Z,0.00
2019-03-08T01:09:56.570Z,0.00
2019-03-08T01:10:56.573Z,0.00
2019-03-08T01:11:56.547Z,0.00
2019-03-08T01:12:56.537Z,0.00
2019-03-08T01:13:56.524Z,0.00
2019-03-08T01:14:56.517Z,0.00
2019-03-08T01:15:56.517Z,0.00
2019-03-08T01:16:56.489Z,0.00
2019-03-08T01:17:56.478Z,0.00
2019-03-08T01:18:56.467Z,0.00
2019-03-08T01:19:56.456Z,0.00
2019-03-08T01:20:56.462Z,0.00
2019-03-08T01:21:56.433Z,0.00
2019-03-08T01:22:56.423Z,0.00
2019-03-08T01:23:56.411Z,0.00
2019-03-08T01:24:56.400Z,0.00
2019-03-08T01:25:56.405Z,0.00
2019-03-08T01:26:56.378Z,0.00
2019-03-08T01:27:56.365Z,0.00
2019-03-08T01:28:56.354Z,0.00
2019-03-08T01:29:56.342Z,0.00
2019-03-08T01:30:56.347Z,0.00
2019-03-08T01:31:56.322Z,0.00
2019-03-08T01:32:56.312Z,0.00
2019-03-08T01:33:56.300Z,0.00
2019-03-08T01:34:56.289Z,0.00
2019-03-08T01:35:56.292Z,0.00
2019-03-08T01:36:56.263Z,0.00
2019-03-08T01:37:56.254Z,0.00
2019-03-08T01:38:56.241Z,0.00
2019-03-08T01:39:56.230Z,0.00
2019-03-08T01:40:56.244Z,0.00
2019-03-08T01:41:56.207Z,0.00
2019-03-08T01:42:56.195Z,0.00
2019-03-08T01:43:56.184Z,0.00
2019-03-08T01:44:56.175Z,0.00
2019-03-08T01:45:56.183Z,0.00
2019-03-08T01:46:56.151Z,0.00
2019-03-08T01:47:56.139Z,0.00
2019-03-08T01:48:56.127Z,0.00
2019-03-08T01:49:56.122Z,0.00
2019-03-08T01:50:56.124Z,0.00
2019-03-08T01:51:56.093Z,0.00
2019-03-08T01:52:56.084Z,0.00
2019-03-08T01:53:56.071Z,0.00
2019-03-08T01:54:56.061Z,0.00
2019-03-08T01:55:56.070Z,0.00
2019-03-08T01:56:56.037Z,0.00
2019-03-08T01:57:56.027Z,0.00
2019-03-08T01:58:56.015Z,0.00
2019-03-08T01:59:56.005Z,0.00
2019-03-08T02:00:56.017Z,0.00
2019-03-08T02:01:55.982Z,0.00
2019-03-08T02:02:55.970Z,0.00
2019-03-08T02:03:55.961Z,0.00
2019-03-08T02:04:55.947Z,0.00
2019-03-08T02:05:55.952Z,0.00
2019-03-08T02:06:55.929Z,0.00
2019-03-08T02:07:55.913Z,0.00
2019-03-08T02:08:55.902Z,0.00
2019-03-08T02:09:55.890Z,0.00
2019-03-08T02:10:55.894Z,0.00
2019-03-08T02:11:55.869Z,0.00
2019-03-08T02:12:55.857Z,0.00
2019-03-08T02:13:55.846Z,0.00
2019-03-08T02:14:55.833Z,0.00
2019-03-08T02:15:55.837Z,0.00
2019-03-08T02:16:55.815Z,0.00
2019-03-08T02:17:55.800Z,0.00
2019-03-08T02:18:55.790Z,0.00
2019-03-08T02:19:55.778Z,0.00
2019-03-08T02:20:55.783Z,0.00
2019-03-08T02:21:55.759Z,0.00
2019-03-08T02:22:55.744Z,0.00
2019-03-08T02:23:55.733Z,0.00
2019-03-08T02:24:55.721Z,0.00
2019-03-08T02:25:55.727Z,0.00
2019-03-08T02:26:55.698Z,0.00
2019-03-08T02:27:55.687Z,0.00
2019-03-08T02:28:55.677Z,0.00
2019-03-08T02:29:55.665Z,0.00
2019-03-08T02:30:55.668Z,0.00
2019-03-08T02:31:55.646Z,0.00
2019-03-08T02:32:55.634Z,0.00
2019-03-08T02:33:55.624Z,0.00
2019-03-08T02:34:55.609Z,0.00
2019-03-08T02:35:55.614Z,0.00
2019-03-08T02:36:55.585Z,0.00
2019-03-08T02:37:55.576Z,0.00
2019-03-08T02:38:55.562Z,0.00
2019-03-08T02:39:55.553Z,0.00
2019-03-08T02:40:55.555Z,0.00
2019-03-08T02:41:55.530Z,0.00
2019-03-08T02:42:55.518Z,0.00
2019-03-08T02:43:55.506Z,0.00
2019-03-08T02:44:55.496Z,0.00
2019-03-08T02:45:55.502Z,0.00
2019-03-08T02:46:55.474Z,0.00
2019-03-08T02:47:55.460Z,0.00
2019-03-08T02:48:55.450Z,0.00
2019-03-08T02:49:55.438Z,0.00
2019-03-08T02:50:55.447Z,0.00
2019-03-08T02:51:55.416Z,0.00
2019-03-08T02:52:55.403Z,0.00
2019-03-08T02:53:55.393Z,0.00
2019-03-08T02:54:55.384Z,0.00
2019-03-08T02:55:55.387Z,0.00
2019-03-08T02:56:55.358Z,0.00
2019-03-08T02:57:55.350Z,0.00
2019-03-08T02:58:55.337Z,0.00
2019-03-08T02:59:55.324Z,0.00
2019-03-08T03:00:55.327Z,0.00
2019-03-08T03:01:55.301Z,0.00
2019-03-08T03:02:55.292Z,0.00
2019-03-08T03:03:55.279Z,0.00
2019-03-08T03:04:55.267Z,0.00
2019-03-08T03:05:55.271Z,0.00
2019-03-08T03:06:55.244Z,0.00
2019-03-08T03:07:55.234Z,0.00
2019-03-08T03:08:55.222Z,0.00
2019-03-08T03:09:55.209Z,0.00
2019-03-08T03:10:55.214Z,0.00
2019-03-08T03:11:55.188Z,0.00
2019-03-08T03:12:55.178Z,0.00
2019-03-08T03:13:55.164Z,0.00
2019-03-08T03:14:55.154Z,0.00
2019-03-08T03:15:55.157Z,0.00
2019-03-08T03:16:55.131Z,0.00
2019-03-08T03:17:55.119Z,0.00
2019-03-08T03:18:55.111Z,0.00
2019-03-08T03:19:55.096Z,0.00
2019-03-08T03:20:55.102Z,0.00
2019-03-08T03:21:55.074Z,0.00
2019-03-08T03:22:55.065Z,0.00
2019-03-08T03:23:55.052Z,0.00
2019-03-08T03:24:55.041Z,0.00
2019-03-08T03:25:55.045Z,0.00
2019-03-08T03:26:55.018Z,0.00
2019-03-08T03:27:55.008Z,0.00
2019-03-08T03:28:54.995Z,0.00
2019-03-08T03:29:54.987Z,0.00
2019-03-08T03:30:54.989Z,0.00
2019-03-08T03:31:54.964Z,0.00
2019-03-08T03:32:54.955Z,0.00
2019-03-08T03:33:54.939Z,0.00
2019-03-08T03:34:54.927Z,0.00
2019-03-08T03:35:54.930Z,0.00
2019-03-08T03:36:54.905Z,0.00
2019-03-08T03:37:54.892Z,0.00
2019-03-08T03:38:54.880Z,0.00
2019-03-08T03:39:54.869Z,0.00
2019-03-08T03:40:54.875Z,0.00
2019-03-08T03:41:54.846Z,0.00
2019-03-08T03:42:54.836Z,0.00
2019-03-08T03:43:54.825Z,0.00
2019-03-08T03:44:54.813Z,0.00
2019-03-08T03:45:54.817Z,0.00
2019-03-08T03:46:54.790Z,0.00
2019-03-08T03:47:54.779Z,0.00
2019-03-08T03:48:54.772Z,0.00
2019-03-08T03:49:54.759Z,0.00
2019-03-08T03:50:54.763Z,0.00
2019-03-08T03:51:54.733Z,0.00
2019-03-08T03:52:54.722Z,0.00
2019-03-08T03:53:54.710Z,0.00
2019-03-08T03:54:54.699Z,0.00
2019-03-08T03:55:54.700Z,0.00
2019-03-08T03:56:54.676Z,0.00
2019-03-08T03:57:54.665Z,0.00
2019-03-08T03:58:54.652Z,0.00
2019-03-08T03:59:54.641Z,0.00
2019-03-08T04:00:54.647Z,0.00
2019-03-08T04:01:54.618Z,0.00
2019-03-08T04:02:54.608Z,0.00
2019-03-08T04:03:54.596Z,0.00
2019-03-08T04:04:54.583Z,0.00
2019-03-08T04:05:54.592Z,0.00
2019-03-08T04:06:54.561Z,0.00
2019-03-08T04:07:54.564Z,0.00
2019-03-08T04:08:54.539Z,0.00
2019-03-08T04:09:54.527Z,0.00
2019-03-08T04:10:54.530Z,0.00
2019-03-08T04:11:54.504Z,0.00
2019-03-08T04:12:54.494Z,0.00
2019-03-08T04:13:54.482Z,0.00
2019-03-08T04:14:54.470Z,0.00
2019-03-08T04:15:54.474Z,0.00
2019-03-08T04:16:54.449Z,0.00
2019-03-08T04:17:54.435Z,0.00
2019-03-08T04:18:54.424Z,0.00
2019-03-08T04:19:54.411Z,0.00
2019-03-08T04:20:54.416Z,0.00
2019-03-08T04:21:54.388Z,0.00
2019-03-08T04:22:54.384Z,0.00
2019-03-08T04:23:54.366Z,0.00
2019-03-08T04:24:54.354Z,0.00
2019-03-08T04:25:54.361Z,0.00
2019-03-08T04:26:54.336Z,0.00
2019-03-08T04:27:54.321Z,0.00
2019-03-08T04:28:54.309Z,0.00
2019-03-08T04:29:54.298Z,0.00
2019-03-08T04:30:54.304Z,0.00
2019-03-08T04:31:54.275Z,0.00
2019-03-08T04:32:54.268Z,0.00
2019-03-08T04:33:54.252Z,0.00
2019-03-08T04:34:54.240Z,0.00
2019-03-08T04:35:54.245Z,0.00
2019-03-08T04:36:54.217Z,0.00
2019-03-08T04:37:54.208Z,0.00
2019-03-08T04:38:54.200Z,0.00
2019-03-08T04:39:54.183Z,0.00
2019-03-08T04:40:54.188Z,0.00
2019-03-08T04:41:54.160Z,0.00
2019-03-08T04:42:54.149Z,0.00
2019-03-08T04:43:54.139Z,0.00
2019-03-08T04:44:54.125Z,0.00
2019-03-08T04:45:54.131Z,0.00
2019-03-08T04:46:54.102Z,0.00
2019-03-08T04:47:54.095Z,0.00
2019-03-08T04:48:54.079Z,0.00
2019-03-08T04:49:54.075Z,0.00
2019-03-08T04:50:54.074Z,0.00
2019-03-08T04:51:54.045Z,0.00
2019-03-08T04:52:54.036Z,0.00
2019-03-08T04:53:54.023Z,0.00
2019-03-08T04:54:54.013Z,0.00
2019-03-08T04:55:54.014Z,0.00
2019-03-08T04:56:53.988Z,0.00
2019-03-08T04:57:53.977Z,0.00
2019-03-08T04:58:53.967Z,0.00
2019-03-08T04:59:53.956Z,0.00
2019-03-08T05:00:53.958Z,0.00
2019-03-08T05:01:53.934Z,0.00
2019-03-08T05:02:53.920Z,0.00
2019-03-08T05:03:53.910Z,0.00
2019-03-08T05:04:53.898Z,0.00
2019-03-08T05:05:53.910Z,0.00
2019-03-08T05:06:53.875Z,0.00
2019-03-08T05:07:53.863Z,0.00
2019-03-08T05:08:53.853Z,0.00
2019-03-08T05:09:53.842Z,0.00
2019-03-08T05:10:53.846Z,0.00
2019-03-08T05:11:53.826Z,0.00
2019-03-08T05:12:53.805Z,0.00
2019-03-08T05:13:53.794Z,0.00
2019-03-08T05:14:53.784Z,0.00
2019-03-08T05:15:53.790Z,0.00
2019-03-08T05:16:53.766Z,0.00
2019-03-08T05:17:53.748Z,0.00
2019-03-08T05:18:53.737Z,0.00
2019-03-08T05:19:53.725Z,0.00
2019-03-08T05:20:53.733Z,0.00
2019-03-08T05:21:53.703Z,0.00
2019-03-08T05:22:53.693Z,0.00
2019-03-08T05:23:53.681Z,0.00
2019-03-08T05:24:53.669Z,0.00
2019-03-08T05:25:53.675Z,0.00
2019-03-08T05:26:53.647Z,0.00
2019-03-08T05:27:53.638Z,0.00
2019-03-08T05:28:53.631Z,0.00
2019-03-08T05:29:53.617Z,0.00
2019-03-08T05:30:53.616Z,0.00
2019-03-08T05:31:53.590Z,0.00
2019-03-08T05:32:53.580Z,0.00
2019-03-08T05:33:53.570Z,0.00
2019-03-08T05:34:53.559Z,0.00
2019-03-08T05:35:53.560Z,0.00
2019-03-08T05:36:53.533Z,0.00
2019-03-08T05:37:53.523Z,0.00
2019-03-08T05:38:53.511Z,0.00
2019-03-08T05:39:53.497Z,0.00
2019-03-08T05:40:53.504Z,0.00
2019-03-08T05:41:53.478Z,0.00
2019-03-08T05:42:53.465Z,0.00
2019-03-08T05:43:53.454Z,0.00
2019-03-08T05:44:53.441Z,0.00
2019-03-08T05:45:53.448Z,0.00
2019-03-08T05:46:53.426Z,0.00
2019-03-08T05:47:53.408Z,0.00
2019-03-08T05:48:53.398Z,0.00
2019-03-08T05:49:53.384Z,0.00
2019-03-08T05:50:53.389Z,5.62
2019-03-08T05:51:53.361Z,5.62
2019-03-08T05:52:53.350Z,5.62
2019-03-08T05:53:53.337Z,5.62
2019-03-08T05:54:53.327Z,5.62
2019-03-08T05:55:53.332Z,5.62
2019-03-08T05:56:53.305Z,5.62
2019-03-08T05:57:53.292Z,5.62
2019-03-08T05:58:53.282Z,5.62
2019-03-08T05:59:53.269Z,5.62
2019-03-08T06:00:53.275Z,11.25
2019-03-08T06:01:53.250Z,11.25
2019-03-08T06:02:53.237Z,11.25
2019-03-08T06:03:53.224Z,11.25
2019-03-08T06:04:53.213Z,11.25
2019-03-08T06:05:53.217Z,16.88
2019-03-08T06:06:53.194Z,16.88
2019-03-08T06:07:53.179Z,16.88
2019-03-08T06:08:53.169Z,16.88
2019-03-08T06:09:53.161Z,16.88
2019-03-08T06:10:53.159Z,16.88
2019-03-08T06:11:53.136Z,22.50
2019-03-08T06:12:53.122Z,22.50
2019-03-08T06:13:53.114Z,22.50
2019-03-08T06:14:53.101Z,28.12
2019-03-08T06:15:53.105Z,28.12
2019-03-08T06:16:53.076Z,28.12
2019-03-08T06:17:53.067Z,28.12
2019-03-08T06:18:53.057Z,28.12
2019-03-08T06:19:53.042Z,28.12
2019-03-08T06:20:53.049Z,33.75
2019-03-08T06:21:53.023Z,39.38
2019-03-08T06:22:53.009Z,45.00
2019-03-08T06:23:52.998Z,45.00
2019-03-08T06:24:52.990Z,45.00
2019-03-08T06:25:52.996Z,45.00
2019-03-08T06:26:52.968Z,45.00
2019-03-08T06:27:52.954Z,50.62
2019-03-08T06:28:52.944Z,45.00
2019-03-08T06:29:52.933Z,39.38
2019-03-08T06:30:52.937Z,45.00
2019-03-08T06:31:52.908Z,39.38
2019-03-08T06:32:52.907Z,61.88
2019-03-08T06:33:52.885Z,61.88
2019-03-08T06:34:52.979Z,50.62
2019-03-08T06:35:52.878Z,45.00
2019-03-08T06:36:52.851Z,50.62
2019-03-08T06:37:52.840Z,67.50
2019-03-08T06:38:52.829Z,45.00
2019-03-08T06:39:52.818Z,61.88
2019-03-08T06:40:52.822Z,56.25
2019-03-08T06:41:52.796Z,45.00
2019-03-08T06:42:52.786Z,56.25
2019-03-08T06:43:52.772Z,50.62
2019-03-08T06:44:52.763Z,106.88
2019-03-08T06:45:52.766Z,56.25
2019-03-08T06:46:52.742Z,61.88
2019-03-08T06:47:52.752Z,101.25
2019-03-08T06:48:52.719Z,84.38
2019-03-08T06:49:52.705Z,129.38
2019-03-08T06:50:52.713Z,129.38
2019-03-08T06:51:52.682Z,95.62
2019-03-08T06:52:52.675Z,61.88
2019-03-08T06:53:52.659Z,112.50
2019-03-08T06:54:52.647Z,61.88
2019-03-08T06:55:52.656Z,73.12
2019-03-08T06:56:52.625Z,112.50
2019-03-08T06:57:52.616Z,78.75
2019-03-08T06:58:52.603Z,157.50
2019-03-08T06:59:52.592Z,84.38
2019-03-08T07:00:52.596Z,84.38
2019-03-08T07:01:52.569Z,95.62
2019-03-08T07:02:52.560Z,84.38
2019-03-08T07:03:52.548Z,219.38
2019-03-08T07:04:52.535Z,225.00
2019-03-08T07:05:52.541Z,135.00
2019-03-08T07:06:52.514Z,61.88
2019-03-08T07:07:52.501Z,61.88
2019-03-08T07:08:52.492Z,61.88
2019-03-08T07:09:52.479Z,67.50
2019-03-08T07:10:52.483Z,67.50
2019-03-08T07:11:52.457Z,78.75
2019-03-08T07:12:52.446Z,129.38
2019-03-08T07:13:52.436Z,151.88
2019-03-08T07:14:52.422Z,129.38
2019-03-08T07:15:52.432Z,123.75
2019-03-08T07:16:52.403Z,225.00
2019-03-08T07:17:52.387Z,163.12
2019-03-08T07:18:52.385Z,157.50
2019-03-08T07:19:52.366Z,146.25
2019-03-08T07:20:52.369Z,309.38
2019-03-08T07:21:52.342Z,241.88
2019-03-08T07:22:52.331Z,405.00
2019-03-08T07:23:52.321Z,84.38
2019-03-08T07:24:52.307Z,56.25
2019-03-08T07:25:54.414Z,50.62
2019-03-08T07:26:52.284Z,45.00
2019-03-08T07:27:52.274Z,39.38
2019-03-08T07:28:52.261Z,33.75
2019-03-08T07:29:52.250Z,33.75
2019-03-08T07:30:58.034Z,33.75
2019-03-08T07:31:53.226Z,33.75
2019-03-08T07:32:52.218Z,33.75
2019-03-08T07:33:53.365Z,33.75
2019-03-08T07:34:52.193Z,28.12
2019-03-08T07:35:52.201Z,28.12
2019-03-08T07:36:52.173Z,28.12
2019-03-08T07:37:52.159Z,33.75
2019-03-08T07:38:52.149Z,33.75
2019-03-08T07:39:52.137Z,28.12
2019-03-08T07:40:52.143Z,28.12
2019-03-08T07:41:52.112Z,28.12
2019-03-08T07:42:52.103Z,28.12
2019-03-08T07:43:52.090Z,22.50
2019-03-08T07:44:52.080Z,28.12
2019-03-08T07:45:52.083Z,33.75
2019-03-08T07:46:52.057Z,33.75
2019-03-08T07:47:52.047Z,39.38
2019-03-08T07:48:52.034Z,45.00
2019-03-08T07:49:52.022Z,39.38
2019-03-08T07:50:52.025Z,39.38
2019-03-08T07:51:51.999Z,39.38
2019-03-08T07:52:51.994Z,39.38
2019-03-08T07:53:51.977Z,39.38
2019-03-08T07:54:53.166Z,39.38
2019-03-08T07:55:51.967Z,39.38
2019-03-08T07:56:51.942Z,39.38
2019-03-08T07:57:51.930Z,45.00
2019-03-08T07:58:51.920Z,50.62
2019-03-08T07:59:54.084Z,50.62
2019-03-08T08:00:51.912Z,56.25
2019-03-08T08:01:51.885Z,56.25
2019-03-08T08:02:51.874Z,50.62
2019-03-08T08:03:51.864Z,56.25
2019-03-08T08:04:51.859Z,56.25
2019-03-08T08:05:58.008Z,56.25
2019-03-08T08:06:52.829Z,67.50
2019-03-08T08:07:51.818Z,67.50
2019-03-08T08:08:52.078Z,61.88
2019-03-08T08:09:51.795Z,50.62
2019-03-08T08:10:51.800Z,45.00
2019-03-08T08:11:51.773Z,39.38
2019-03-08T08:12:51.762Z,28.12
2019-03-08T08:13:51.753Z,28.12
2019-03-08T08:14:51.740Z,22.50
2019-03-08T08:15:51.747Z,22.50
2019-03-08T08:16:51.719Z,28.12
2019-03-08T08:17:51.706Z,28.12
2019-03-08T08:18:51.693Z,28.12
2019-03-08T08:19:51.682Z,16.88
2019-03-08T08:20:51.687Z,16.88
2019-03-08T08:21:51.661Z,11.25
2019-03-08T08:22:51.660Z,11.25
2019-03-08T08:23:51.637Z,11.25
2019-03-08T08:24:51.626Z,11.25
2019-03-08T08:25:51.631Z,16.88
2019-03-08T08:26:51.621Z,16.88
2019-03-08T08:27:51.601Z,16.88
2019-03-08T08:28:51.580Z,16.88
2019-03-08T08:29:51.569Z,22.50
2019-03-08T08:30:51.578Z,22.50
2019-03-08T08:31:51.546Z,22.50
2019-03-08T08:32:51.535Z,22.50
2019-03-08T08:33:51.525Z,22.50
2019-03-08T08:34:51.513Z,28.12
2019-03-08T08:35:51.525Z,28.12
2019-03-08T08:36:51.493Z,22.50
2019-03-08T08:37:51.479Z,16.88
2019-03-08T08:38:51.468Z,11.25
2019-03-08T08:39:51.456Z,11.25
2019-03-08T08:40:51.463Z,11.25
2019-03-08T08:41:51.435Z,11.25
2019-03-08T08:42:51.422Z,11.25
2019-03-08T08:43:51.417Z,11.25
2019-03-08T08:44:53.044Z,11.25
2019-03-08T08:45:51.404Z,16.88
2019-03-08T08:46:51.378Z,16.88
2019-03-08T08:47:51.365Z,16.88
2019-03-08T08:48:51.355Z,16.88
2019-03-08T08:49:54.671Z,16.88
2019-03-08T08:50:51.350Z,22.50
2019-03-08T08:51:51.324Z,22.50
2019-03-08T08:52:51.310Z,22.50
2019-03-08T08:53:51.300Z,16.88
2019-03-08T08:54:51.287Z,16.88
2019-03-08T08:55:51.290Z,16.88
2019-03-08T08:56:51.265Z,28.12
2019-03-08T08:57:51.253Z,33.75
2019-03-08T08:58:51.241Z,33.75
2019-03-08T08:59:51.233Z,28.12
2019-03-08T09:00:51.233Z,28.12
2019-03-08T09:01:51.210Z,22.50
2019-03-08T09:02:51.198Z,22.50
2019-03-08T09:03:51.186Z,28.12
2019-03-08T09:04:51.174Z,39.38
2019-03-08T09:05:51.181Z,61.88
2019-03-08T09:06:51.155Z,45.00
2019-03-08T09:07:51.143Z,33.75
2019-03-08T09:08:51.138Z,39.38
2019-03-08T09:09:51.117Z,39.38
2019-03-08T09:10:51.127Z,39.38
2019-03-08T09:11:52.833Z,33.75
2019-03-08T09:12:51.084Z,33.75
2019-03-08T09:13:51.082Z,33.75
2019-03-08T09:14:51.061Z,33.75
2019-03-08T09:15:51.064Z,39.38
2019-03-08T09:16:51.038Z,39.38
2019-03-08T09:17:51.027Z,45.00
2019-03-08T09:18:51.015Z,39.38
2019-03-08T09:19:51.006Z,39.38
2019-03-08T09:20:51.011Z,33.75
2019-03-08T09:21:50.979Z,39.38
2019-03-08T09:22:50.972Z,39.38
2019-03-08T09:23:50.957Z,45.00
2019-03-08T09:24:50.945Z,33.75
2019-03-08T09:25:50.954Z,28.12
2019-03-08T09:26:50.922Z,33.75
2019-03-08T09:27:50.912Z,39.38
2019-03-08T09:28:50.899Z,39.38
2019-03-08T09:29:50.889Z,45.00
2019-03-08T09:30:50.891Z,45.00
2019-03-08T09:31:50.866Z,39.38
2019-03-08T09:32:58.846Z,39.38
2019-03-08T09:33:51.841Z,39.38
2019-03-08T09:34:50.839Z,45.00
2019-03-08T09:35:50.836Z,50.62
2019-03-08T09:36:50.808Z,50.62
2019-03-08T09:37:50.797Z,50.62
2019-03-08T09:38:50.785Z,50.62
2019-03-08T09:39:50.775Z,50.62
2019-03-08T09:40:50.778Z,50.62
2019-03-08T09:41:50.751Z,45.00
2019-03-08T09:42:50.756Z,50.62
2019-03-08T09:43:50.731Z,61.88
2019-03-08T09:44:50.720Z,73.12
2019-03-08T09:45:50.723Z,73.12
2019-03-08T09:46:50.694Z,67.50
2019-03-08T09:47:50.683Z,73.12
2019-03-08T09:48:50.675Z,78.75
2019-03-08T09:49:50.662Z,90.00
2019-03-08T09:50:50.663Z,95.62
2019-03-08T09:51:50.637Z,101.25
2019-03-08T09:52:50.626Z,106.88
2019-03-08T09:53:50.616Z,95.62
2019-03-08T09:54:50.607Z,90.00
2019-03-08T09:55:50.608Z,90.00
2019-03-08T09:56:50.580Z,106.88
2019-03-08T09:57:52.125Z,112.50
2019-03-08T09:58:50.557Z,118.12
2019-03-08T09:59:50.547Z,106.88
2019-03-08T10:00:50.551Z,101.25
2019-03-08T10:01:50.528Z,95.62
2019-03-08T10:02:50.544Z,90.00
2019-03-08T10:03:50.500Z,90.00
2019-03-08T10:04:50.491Z,95.62
2019-03-08T10:05:50.494Z,101.25
2019-03-08T10:06:50.466Z,90.00
2019-03-08T10:07:50.455Z,90.00
2019-03-08T10:08:50.445Z,84.38
2019-03-08T10:09:50.433Z,78.75
2019-03-08T10:10:50.438Z,78.75
2019-03-08T10:11:50.418Z,78.75
2019-03-08T10:12:50.399Z,84.38
2019-03-08T10:13:50.389Z,90.00
2019-03-08T10:14:50.378Z,101.25
2019-03-08T10:15:50.381Z,101.25
2019-03-08T10:16:50.355Z,112.50
2019-03-08T10:17:50.343Z,112.50
2019-03-08T10:18:50.340Z,106.88
2019-03-08T10:19:50.322Z,101.25
2019-03-08T10:20:50.324Z,101.25
2019-03-08T10:21:50.301Z,112.50
2019-03-08T10:22:50.287Z,106.88
2019-03-08T10:23:50.275Z,112.50
2019-03-08T10:24:50.263Z,112.50
2019-03-08T10:25:50.270Z,106.88
2019-03-08T10:26:50.243Z,112.50
2019-03-08T10:27:50.230Z,106.88
2019-03-08T10:28:50.217Z,101.25
2019-03-08T10:29:50.207Z,95.62
2019-03-08T10:30:50.211Z,101.25
2019-03-08T10:31:50.186Z,101.25
2019-03-08T10:32:50.175Z,84.38
2019-03-08T10:33:50.162Z,90.00
2019-03-08T10:34:50.151Z,101.25
2019-03-08T10:35:50.155Z,95.62
2019-03-08T10:36:50.125Z,90.00
2019-03-08T10:37:50.115Z,101.25
2019-03-08T10:38:50.108Z,151.88
2019-03-08T10:39:50.093Z,258.75
2019-03-08T10:40:50.106Z,174.38
2019-03-08T10:41:50.073Z,180.00
2019-03-08T10:42:50.060Z,281.25
2019-03-08T10:43:50.046Z,157.50
2019-03-08T10:44:50.036Z,174.38
2019-03-08T10:45:50.040Z,180.00
2019-03-08T10:46:50.012Z,202.50
2019-03-08T10:47:55.960Z,2671.88
2019-03-08T10:48:50.992Z,1417.50
2019-03-08T10:49:55.137Z,2716.88
2019-03-08T10:50:51.659Z,2593.12
2019-03-08T10:51:49.954Z,770.62
2019-03-08T10:52:49.945Z,354.38
2019-03-08T10:53:49.933Z,185.62
2019-03-08T10:54:49.922Z,185.62
2019-03-08T10:55:49.928Z,180.00
2019-03-08T10:56:49.914Z,174.38
2019-03-08T10:57:49.887Z,230.62
2019-03-08T10:58:49.876Z,208.12
2019-03-08T10:59:49.865Z,185.62
2019-03-08T11:00:49.868Z,174.38
2019-03-08T11:01:49.842Z,225.00
2019-03-08T11:02:49.830Z,230.62
2019-03-08T11:03:49.819Z,264.38
2019-03-08T11:04:49.809Z,241.88
2019-03-08T11:05:49.811Z,405.00
2019-03-08T11:06:49.785Z,309.38
2019-03-08T11:07:49.773Z,343.12
2019-03-08T11:08:49.762Z,2373.75
2019-03-08T11:09:49.751Z,731.25
2019-03-08T11:10:49.755Z,995.62
2019-03-08T11:11:49.731Z,258.75
2019-03-08T11:12:49.719Z,1040.62
2019-03-08T11:13:49.706Z,1366.88
2019-03-08T11:14:49.694Z,613.12
2019-03-08T11:15:49.697Z,247.50
2019-03-08T11:16:49.671Z,191.25
2019-03-08T11:17:50.997Z,213.75
2019-03-08T11:18:49.649Z,601.88
2019-03-08T11:19:49.643Z,320.62
2019-03-08T11:20:49.644Z,303.75
2019-03-08T11:21:49.614Z,196.88
2019-03-08T11:22:49.604Z,275.62
2019-03-08T11:23:49.592Z,236.25
2019-03-08T11:24:49.580Z,157.50
2019-03-08T11:25:49.585Z,140.62
2019-03-08T11:26:49.557Z,196.88
2019-03-08T11:27:49.546Z,168.75
2019-03-08T11:28:49.536Z,151.88
2019-03-08T11:29:49.529Z,135.00
2019-03-08T11:30:53.953Z,140.62
2019-03-08T11:31:49.501Z,163.12
2019-03-08T11:32:49.491Z,129.38
2019-03-08T11:33:49.478Z,129.38
2019-03-08T11:34:52.308Z,174.38
2019-03-08T11:35:49.473Z,247.50
2019-03-08T11:36:49.449Z,264.38
2019-03-08T11:37:49.434Z,258.75
2019-03-08T11:38:49.422Z,258.75
2019-03-08T11:39:49.410Z,298.12
2019-03-08T11:40:49.417Z,292.50
2019-03-08T11:41:49.389Z,247.50
2019-03-08T11:42:49.377Z,230.62
2019-03-08T11:43:49.366Z,185.62
2019-03-08T11:44:49.355Z,180.00
2019-03-08T11:45:49.359Z,191.25
2019-03-08T11:46:49.332Z,191.25
2019-03-08T11:47:49.321Z,157.50
2019-03-08T11:48:49.309Z,129.38
2019-03-08T11:49:49.300Z,106.88
2019-03-08T11:50:49.304Z,101.25
2019-03-08T11:51:49.277Z,101.25
2019-03-08T11:52:49.279Z,101.25
2019-03-08T11:53:56.027Z,106.88
2019-03-08T11:54:50.242Z,101.25
2019-03-08T11:55:49.247Z,84.38
2019-03-08T11:56:55.950Z,73.12
2019-03-08T11:57:50.210Z,61.88
2019-03-08T11:58:49.204Z,61.88
2019-03-08T11:59:49.185Z,67.50
2019-03-08T12:00:49.196Z,67.50
2019-03-08T12:01:49.162Z,73.12
2019-03-08T12:02:49.152Z,73.12
2019-03-08T12:03:49.140Z,73.12
2019-03-08T12:04:49.128Z,67.50
2019-03-08T12:05:49.970Z,45.00
2019-03-08T12:06:49.105Z,33.75
2019-03-08T12:07:49.094Z,39.38
2019-03-08T12:08:49.085Z,33.75
2019-03-08T12:09:49.072Z,28.12
2019-03-08T12:10:49.077Z,16.88
2019-03-08T12:11:49.057Z,11.25
2019-03-08T12:12:49.036Z,11.25
2019-03-08T12:13:49.027Z,16.88
2019-03-08T12:14:49.016Z,22.50
2019-03-08T12:15:49.020Z,28.12
2019-03-08T12:16:48.992Z,28.12
2019-03-08T12:17:48.980Z,28.12
2019-03-08T12:18:48.969Z,39.38
2019-03-08T12:19:48.959Z,73.12
2019-03-08T12:20:48.963Z,118.12
2019-03-08T12:21:48.934Z,163.12
2019-03-08T12:22:48.926Z,191.25
2019-03-08T12:23:48.914Z,208.12
2019-03-08T12:24:48.899Z,196.88
2019-03-08T12:25:48.905Z,168.75
2019-03-08T12:26:48.880Z,129.38
2019-03-08T12:27:48.866Z,118.12
2019-03-08T12:28:48.855Z,118.12
2019-03-08T12:29:48.849Z,163.12
2019-03-08T12:30:48.849Z,174.38
2019-03-08T12:31:48.821Z,174.38
2019-03-08T12:32:48.811Z,180.00
2019-03-08T12:33:48.799Z,168.75
2019-03-08T12:34:48.786Z,163.12
2019-03-08T12:35:48.792Z,163.12
2019-03-08T12:36:48.765Z,157.50
2019-03-08T12:37:48.768Z,174.38
2019-03-08T12:38:48.742Z,163.12
2019-03-08T12:39:48.730Z,163.12
2019-03-08T12:40:48.740Z,157.50
2019-03-08T12:41:48.706Z,151.88
2019-03-08T12:42:48.695Z,146.25
2019-03-08T12:43:48.683Z,140.62
2019-03-08T12:44:48.674Z,146.25
2019-03-08T12:45:48.677Z,140.62
2019-03-08T12:46:48.650Z,129.38
2019-03-08T12:47:48.640Z,135.00
2019-03-08T12:48:50.204Z,118.12
2019-03-08T12:49:48.616Z,118.12
2019-03-08T12:50:48.625Z,112.50
2019-03-08T12:51:48.592Z,101.25
2019-03-08T12:52:48.579Z,106.88
2019-03-08T12:53:48.568Z,118.12
2019-03-08T12:54:48.561Z,118.12
2019-03-08T12:55:48.561Z,106.88
2019-03-08T12:56:48.534Z,95.62
2019-03-08T12:57:48.524Z,90.00
2019-03-08T12:58:48.512Z,78.75